sensor_id;sensor_type;location;lat;lon;timestamp;pressure;altitude;pressure_sealevel;temperature;humidity
62617;BME280;62539;51.190;6.808;2023-01-28T00:01:09;102501.44;;;18.64;49.32
62617;BME280;62539;51.190;6.808;2023-01-28T00:03:40;102499.69;;;18.62;49.28
62617;BME280;62539;51.190;6.808;2023-01-28T00:06:09;102494.44;;;18.62;49.45
62617;BME280;62539;51.190;6.808;2023-01-28T00:08:37;102489.19;;;18.59;49.33
62617;BME280;62539;51.190;6.808;2023-01-28T00:11:05;102493.59;;;18.58;49.23
62617;BME280;62539;51.190;6.808;2023-01-28T00:13:32;102490.13;;;18.56;49.40
62617;BME280;62539;51.190;6.808;2023-01-28T00:16:02;102482.25;;;18.55;49.41
62617;BME280;62539;51.190;6.808;2023-01-28T00:18:33;102493.66;;;18.54;49.42
62617;BME280;62539;51.190;6.808;2023-01-28T00:21:00;102484.91;;;18.51;49.30
62617;BME280;62539;51.190;6.808;2023-01-28T00:23:29;102483.16;;;18.50;49.29
62617;BME280;62539;51.190;6.808;2023-01-28T00:26:00;102480.53;;;18.50;49.20
62617;BME280;62539;51.190;6.808;2023-01-28T00:28:27;102476.16;;;18.48;49.33
62617;BME280;62539;51.190;6.808;2023-01-28T00:30:53;102471.78;;;18.47;49.25
62617;BME280;62539;51.190;6.808;2023-01-28T00:33:19;102471.81;;;18.45;49.46
62617;BME280;62539;51.190;6.808;2023-01-28T00:35:44;102470.06;;;18.44;49.19
62617;BME280;62539;51.190;6.808;2023-01-28T00:38:10;102469.19;;;18.44;49.35
62617;BME280;62539;51.190;6.808;2023-01-28T00:40:36;102472.69;;;18.43;49.24
62617;BME280;62539;51.190;6.808;2023-01-28T00:43:02;102473.59;;;18.40;49.42
62617;BME280;62539;51.190;6.808;2023-01-28T00:45:27;102474.47;;;18.39;49.66
62617;BME280;62539;51.190;6.808;2023-01-28T00:47:53;102475.34;;;18.38;49.33
62617;BME280;62539;51.190;6.808;2023-01-28T00:50:18;102477.09;;;18.38;49.25
62617;BME280;62539;51.190;6.808;2023-01-28T00:52:47;102481.50;;;18.37;49.20
62617;BME280;62539;51.190;6.808;2023-01-28T00:55:13;102484.16;;;18.34;49.31
62617;BME280;62539;51.190;6.808;2023-01-28T00:57:39;102481.50;;;18.34;49.24
62617;BME280;62539;51.190;6.808;2023-01-28T01:00:05;102477.16;;;18.33;49.17
62617;BME280;62539;51.190;6.808;2023-01-28T01:02:31;102481.53;;;18.31;49.38
62617;BME280;62539;51.190;6.808;2023-01-28T01:04:56;102475.41;;;18.30;49.47
62617;BME280;62539;51.190;6.808;2023-01-28T01:07:23;102479.78;;;18.30;49.41
62617;BME280;62539;51.190;6.808;2023-01-28T01:09:58;102482.41;;;18.28;49.28
62617;BME280;62539;51.190;6.808;2023-01-28T01:12:25;102487.69;;;18.27;49.42
62617;BME280;62539;51.190;6.808;2023-01-28T01:14:50;102482.44;;;18.25;49.26
62617;BME280;62539;51.190;6.808;2023-01-28T01:17:15;102486.81;;;18.25;49.35
62617;BME280;62539;51.190;6.808;2023-01-28T01:19:41;102490.34;;;18.24;49.36
62617;BME280;62539;51.190;6.808;2023-01-28T01:22:07;102480.69;;;18.21;49.26
62617;BME280;62539;51.190;6.808;2023-01-28T01:24:32;102485.97;;;18.21;49.27
62617;BME280;62539;51.190;6.808;2023-01-28T01:26:58;102478.09;;;18.19;49.23
62617;BME280;62539;51.190;6.808;2023-01-28T01:29:24;102486.88;;;18.18;49.29
62617;BME280;62539;51.190;6.808;2023-01-28T01:31:49;102490.38;;;18.17;49.37
62617;BME280;62539;51.190;6.808;2023-01-28T01:34:15;102478.97;;;18.17;49.06
62617;BME280;62539;51.190;6.808;2023-01-28T01:36:40;102474.63;;;18.14;49.30
62617;BME280;62539;51.190;6.808;2023-01-28T01:39:10;102479.88;;;18.14;49.25
62617;BME280;62539;51.190;6.808;2023-01-28T01:41:37;102478.13;;;18.13;49.23
62617;BME280;62539;51.190;6.808;2023-01-28T01:44:04;102478.13;;;18.12;49.22
62617;BME280;62539;51.190;6.808;2023-01-28T01:46:40;102485.16;;;18.11;49.24
62617;BME280;62539;51.190;6.808;2023-01-28T01:49:20;102481.66;;;18.09;49.12
62617;BME280;62539;51.190;6.808;2023-01-28T01:51:50;102485.16;;;18.08;49.04
62617;BME280;62539;51.190;6.808;2023-01-28T01:54:20;102479.91;;;18.08;49.21
62617;BME280;62539;51.190;6.808;2023-01-28T01:56:51;102486.03;;;18.07;49.21
62617;BME280;62539;51.190;6.808;2023-01-28T01:59:21;102474.69;;;18.05;49.16
62617;BME280;62539;51.190;6.808;2023-01-28T02:01:53;102488.69;;;18.04;49.20
62617;BME280;62539;51.190;6.808;2023-01-28T02:04:28;102494.81;;;18.03;49.16
62617;BME280;62539;51.190;6.808;2023-01-28T02:06:59;102497.44;;;18.03;49.19
62617;BME280;62539;51.190;6.808;2023-01-28T02:09:30;102499.22;;;18.01;49.18
62617;BME280;62539;51.190;6.808;2023-01-28T02:12:20;102495.69;;;17.99;49.13
62617;BME280;62539;51.190;6.808;2023-01-28T02:15:15;102489.56;;;17.97;49.07
62617;BME280;62539;51.190;6.808;2023-01-28T02:17:45;102491.31;;;17.96;49.17
62617;BME280;62539;51.190;6.808;2023-01-28T02:20:13;102498.31;;;17.96;49.08
62617;BME280;62539;51.190;6.808;2023-01-28T02:29:16;102502.72;;;17.89;49.29
62617;BME280;62539;51.190;6.808;2023-01-28T02:31:54;102499.22;;;17.88;49.19
62617;BME280;62539;51.190;6.808;2023-01-28T02:34:47;102500.97;;;17.86;49.14
62617;BME280;62539;51.190;6.808;2023-01-28T02:37:24;102506.25;;;17.86;49.19
62617;BME280;62539;51.190;6.808;2023-01-28T02:40:00;102514.09;;;17.85;49.18
62617;BME280;62539;51.190;6.808;2023-01-28T02:42:33;102517.59;;;17.84;49.00
62617;BME280;62539;51.190;6.808;2023-01-28T02:45:01;102517.59;;;17.84;49.19
62617;BME280;62539;51.190;6.808;2023-01-28T02:47:27;102514.13;;;17.83;49.32
62617;BME280;62539;51.190;6.808;2023-01-28T02:50:13;102511.50;;;17.83;49.15
62617;BME280;62539;51.190;6.808;2023-01-28T02:56:11;102510.63;;;17.80;49.08
62617;BME280;62539;51.190;6.808;2023-01-28T02:59:12;102522.03;;;17.77;49.11
62617;BME280;62539;51.190;6.808;2023-01-28T03:02:28;102519.38;;;17.75;49.02
62617;BME280;62539;51.190;6.808;2023-01-28T03:05:52;102523.75;;;17.73;49.01
62617;BME280;62539;51.190;6.808;2023-01-28T03:08:04;102520.28;;;17.73;49.11
62617;BME280;62539;51.190;6.808;2023-01-28T03:10:53;102522.03;;;17.71;49.19
62617;BME280;62539;51.190;6.808;2023-01-28T03:13:40;102526.41;;;17.70;49.10
62617;BME280;62539;51.190;6.808;2023-01-28T03:16:25;102523.78;;;17.69;49.23
62617;BME280;62539;51.190;6.808;2023-01-28T03:19:12;102521.16;;;17.69;49.08
62617;BME280;62539;51.190;6.808;2023-01-28T03:21:57;102522.91;;;17.68;49.30
62617;BME280;62539;51.190;6.808;2023-01-28T03:24:47;102520.31;;;17.67;49.29
62617;BME280;62539;51.190;6.808;2023-01-28T03:27:59;102520.28;;;17.65;49.00
62617;BME280;62539;51.190;6.808;2023-01-28T03:30:59;102522.06;;;17.65;49.11
62617;BME280;62539;51.190;6.808;2023-01-28T03:33:56;102515.06;;;17.62;49.04
62617;BME280;62539;51.190;6.808;2023-01-28T03:36:44;102527.31;;;17.61;49.08
62617;BME280;62539;51.190;6.808;2023-01-28T03:39:16;102526.41;;;17.61;49.19
62617;BME280;62539;51.190;6.808;2023-01-28T03:41:42;102520.31;;;17.60;49.14
62617;BME280;62539;51.190;6.808;2023-01-28T03:44:23;102513.31;;;17.59;49.03
62617;BME280;62539;51.190;6.808;2023-01-28T03:47:08;102516.81;;;17.58;49.14
62617;BME280;62539;51.190;6.808;2023-01-28T03:49:46;102522.06;;;17.58;49.07
62617;BME280;62539;51.190;6.808;2023-01-28T03:52:18;102524.69;;;17.58;49.15
62617;BME280;62539;51.190;6.808;2023-01-28T03:54:48;102528.19;;;17.57;48.87
62617;BME280;62539;51.190;6.808;2023-01-28T03:57:15;102535.19;;;17.57;49.06
62617;BME280;62539;51.190;6.808;2023-01-28T03:59:42;102536.94;;;17.56;49.00
62617;BME280;62539;51.190;6.808;2023-01-28T04:02:09;102539.56;;;17.56;49.20
62617;BME280;62539;51.190;6.808;2023-01-28T04:04:39;102537.81;;;17.55;48.89
62617;BME280;62539;51.190;6.808;2023-01-28T04:07:07;102541.31;;;17.54;49.06
62617;BME280;62539;51.190;6.808;2023-01-28T04:09:35;102539.56;;;17.53;49.17
62617;BME280;62539;51.190;6.808;2023-01-28T04:12:01;102535.19;;;17.54;48.85
62617;BME280;62539;51.190;6.808;2023-01-28T04:14:27;102527.34;;;17.52;48.91
62617;BME280;62539;51.190;6.808;2023-01-28T04:16:54;102536.94;;;17.52;49.07
62617;BME280;62539;51.190;6.808;2023-01-28T04:19:20;102542.19;;;17.52;49.07
62617;BME280;62539;51.190;6.808;2023-01-28T04:21:46;102551.81;;;17.51;49.04
62617;BME280;62539;51.190;6.808;2023-01-28T04:24:12;102545.69;;;17.51;48.96
62617;BME280;62539;51.190;6.808;2023-01-28T04:26:37;102549.19;;;17.49;49.01
62617;BME280;62539;51.190;6.808;2023-01-28T04:29:03;102554.47;;;17.48;48.84
62617;BME280;62539;51.190;6.808;2023-01-28T04:31:30;102551.84;;;17.48;48.90
62617;BME280;62539;51.190;6.808;2023-01-28T04:33:56;102556.19;;;17.47;48.99
62617;BME280;62539;51.190;6.808;2023-01-28T04:36:22;102560.59;;;17.47;48.89
62617;BME280;62539;51.190;6.808;2023-01-28T04:38:47;102566.69;;;17.46;48.85
62617;BME280;62539;51.190;6.808;2023-01-28T04:41:13;102562.34;;;17.45;48.79
62617;BME280;62539;51.190;6.808;2023-01-28T04:43:38;102556.19;;;17.44;48.69
62617;BME280;62539;51.190;6.808;2023-01-28T04:46:03;102572.81;;;17.43;48.99
62617;BME280;62539;51.190;6.808;2023-01-28T04:48:29;102568.44;;;17.42;49.13
62617;BME280;62539;51.190;6.808;2023-01-28T04:50:55;102571.09;;;17.41;48.72
62617;BME280;62539;51.190;6.808;2023-01-28T04:53:21;102571.09;;;17.41;48.92
62617;BME280;62539;51.190;6.808;2023-01-28T04:55:46;102560.59;;;17.41;48.79
62617;BME280;62539;51.190;6.808;2023-01-28T04:58:12;102567.59;;;17.39;48.87
62617;BME280;62539;51.190;6.808;2023-01-28T05:00:37;102564.06;;;17.38;48.92
62617;BME280;62539;51.190;6.808;2023-01-28T05:03:02;102565.84;;;17.38;48.79
62617;BME280;62539;51.190;6.808;2023-01-28T05:05:28;102564.94;;;17.37;48.77
62617;BME280;62539;51.190;6.808;2023-01-28T05:07:54;102560.56;;;17.42;48.87
62617;BME280;62539;51.190;6.808;2023-01-28T05:10:21;102559.69;;;17.51;48.39
62617;BME280;62539;51.190;6.808;2023-01-28T05:12:48;102567.56;;;17.63;48.42
62617;BME280;62539;51.190;6.808;2023-01-28T05:15:14;102562.28;;;17.73;48.07
62617;BME280;62539;51.190;6.808;2023-01-28T05:17:41;102560.50;;;17.84;47.84
62617;BME280;62539;51.190;6.808;2023-01-28T05:20:09;102563.97;;;17.94;48.00
62617;BME280;62539;51.190;6.808;2023-01-28T05:22:35;102555.22;;;18.03;47.65
62617;BME280;62539;51.190;6.808;2023-01-28T05:25:01;102563.06;;;18.11;47.70
62617;BME280;62539;51.190;6.808;2023-01-28T05:27:28;102556.03;;;18.17;47.45
62617;BME280;62539;51.190;6.808;2023-01-28T05:29:55;102557.75;;;18.23;47.49
62617;BME280;62539;51.190;6.808;2023-01-28T05:32:20;102562.13;;;18.29;47.31
62617;BME280;62539;51.190;6.808;2023-01-28T05:34:46;102563.84;;;18.33;47.44
62617;BME280;62539;51.190;6.808;2023-01-28T05:37:12;102555.94;;;18.38;47.30
62617;BME280;62539;51.190;6.808;2023-01-28T05:39:37;102562.03;;;18.43;47.29
62617;BME280;62539;51.190;6.808;2023-01-28T05:42:03;102565.53;;;18.46;47.24
62617;BME280;62539;51.190;6.808;2023-01-28T05:44:28;102565.50;;;18.51;47.39
62617;BME280;62539;51.190;6.808;2023-01-28T05:46:54;102571.63;;;18.55;47.21
62617;BME280;62539;51.190;6.808;2023-01-28T05:49:19;102573.31;;;18.59;47.14
62617;BME280;62539;51.190;6.808;2023-01-28T05:51:44;102565.41;;;18.62;47.14
62617;BME280;62539;51.190;6.808;2023-01-28T05:54:12;102579.41;;;18.65;47.24
62617;BME280;62539;51.190;6.808;2023-01-28T05:56:38;102585.50;;;18.69;47.01
62617;BME280;62539;51.190;6.808;2023-01-28T05:59:05;102593.38;;;18.72;47.01
62617;BME280;62539;51.190;6.808;2023-01-28T06:01:31;102595.13;;;18.76;46.89
62617;BME280;62539;51.190;6.808;2023-01-28T06:03:56;102598.59;;;18.78;46.54
62617;BME280;62539;51.190;6.808;2023-01-28T06:06:23;102600.34;;;18.79;46.84
62617;BME280;62539;51.190;6.808;2023-01-28T06:08:48;102604.72;;;18.80;46.88
62617;BME280;62539;51.190;6.808;2023-01-28T06:11:14;102600.34;;;18.79;47.14
62617;BME280;62539;51.190;6.808;2023-01-28T06:13:39;102599.50;;;18.79;46.97
62617;BME280;62539;51.190;6.808;2023-01-28T06:16:06;102603.88;;;18.77;47.02
62617;BME280;62539;51.190;6.808;2023-01-28T06:18:32;102608.25;;;18.76;47.05
62617;BME280;62539;51.190;6.808;2023-01-28T06:20:58;102598.63;;;18.75;47.07
62617;BME280;62539;51.190;6.808;2023-01-28T06:23:24;102594.22;;;18.77;47.01
62617;BME280;62539;51.190;6.808;2023-01-28T06:25:55;102592.50;;;18.78;46.86
62617;BME280;62539;51.190;6.808;2023-01-28T06:28:22;102605.59;;;18.79;46.88
62617;BME280;62539;51.190;6.808;2023-01-28T06:30:49;102602.97;;;18.83;46.93
62617;BME280;62539;51.190;6.808;2023-01-28T06:33:16;102604.72;;;18.85;46.91
62617;BME280;62539;51.190;6.808;2023-01-28T06:35:46;102609.94;;;18.87;46.89
62617;BME280;62539;51.190;6.808;2023-01-28T06:38:12;102602.03;;;18.90;46.59
62617;BME280;62539;51.190;6.808;2023-01-28T06:40:37;102596.75;;;18.93;46.92
62617;BME280;62539;51.190;6.808;2023-01-28T06:43:04;102607.28;;;18.94;46.79
62617;BME280;62539;51.190;6.808;2023-01-28T06:45:31;102600.25;;;18.98;46.93
62617;BME280;62539;51.190;6.808;2023-01-28T06:47:57;102613.38;;;19.01;46.73
62617;BME280;62539;51.190;6.808;2023-01-28T06:50:22;102612.50;;;19.02;46.71
62617;BME280;62539;51.190;6.808;2023-01-28T06:52:48;102613.41;;;19.03;46.67
62617;BME280;62539;51.190;6.808;2023-01-28T06:55:13;102614.28;;;19.02;46.65
62617;BME280;62539;51.190;6.808;2023-01-28T06:57:39;102616.03;;;19.01;46.79
62617;BME280;62539;51.190;6.808;2023-01-28T07:00:06;102616.91;;;19.00;46.87
62617;BME280;62539;51.190;6.808;2023-01-28T07:02:37;102619.56;;;18.99;46.57
62617;BME280;62539;51.190;6.808;2023-01-28T07:05:04;102616.94;;;18.97;46.74
62617;BME280;62539;51.190;6.808;2023-01-28T07:07:30;102616.03;;;18.95;46.66
62617;BME280;62539;51.190;6.808;2023-01-28T07:09:56;102616.91;;;18.94;46.83
62617;BME280;62539;51.190;6.808;2023-01-28T07:12:21;102617.81;;;18.91;46.99
62617;BME280;62539;51.190;6.808;2023-01-28T07:14:47;102609.91;;;18.93;46.69
62617;BME280;62539;51.190;6.808;2023-01-28T07:17:12;102605.50;;;18.95;46.63
62617;BME280;62539;51.190;6.808;2023-01-28T07:19:37;102602.91;;;18.97;46.54
62617;BME280;62539;51.190;6.808;2023-01-28T07:22:03;102605.53;;;18.98;46.60
62617;BME280;62539;51.190;6.808;2023-01-28T07:24:29;102607.28;;;19.01;46.49
62617;BME280;62539;51.190;6.808;2023-01-28T07:26:54;102609.00;;;19.03;46.42
62617;BME280;62539;51.190;6.808;2023-01-28T07:29:20;102616.88;;;19.05;46.54
62617;BME280;62539;51.190;6.808;2023-01-28T07:31:45;102615.13;;;19.07;46.49
62617;BME280;62539;51.190;6.808;2023-01-28T07:34:11;102623.88;;;19.09;46.48
62617;BME280;62539;51.190;6.808;2023-01-28T07:36:37;102621.22;;;19.10;46.35
62617;BME280;62539;51.190;6.808;2023-01-28T07:39:03;102622.94;;;19.15;46.32
62617;BME280;62539;51.190;6.808;2023-01-28T07:41:29;102622.94;;;19.15;46.17
62617;BME280;62539;51.190;6.808;2023-01-28T07:43:54;102618.56;;;19.14;46.27
62617;BME280;62539;51.190;6.808;2023-01-28T07:46:20;102613.28;;;19.14;46.31
62617;BME280;62539;51.190;6.808;2023-01-28T07:48:45;102622.97;;;19.13;46.46
62617;BME280;62539;51.190;6.808;2023-01-28T07:51:11;102632.63;;;19.11;46.39
62617;BME280;62539;51.190;6.808;2023-01-28T07:53:36;102626.47;;;19.10;46.29
62617;BME280;62539;51.190;6.808;2023-01-28T07:56:02;102630.88;;;19.08;46.41
62617;BME280;62539;51.190;6.808;2023-01-28T07:58:29;102625.63;;;19.07;46.28
62617;BME280;62539;51.190;6.808;2023-01-28T08:00:56;102617.75;;;19.05;46.50
62617;BME280;62539;51.190;6.808;2023-01-28T08:03:23;102625.63;;;19.05;46.27
62617;BME280;62539;51.190;6.808;2023-01-28T08:05:50;102624.75;;;19.06;46.30
62617;BME280;62539;51.190;6.808;2023-01-28T08:08:17;102635.28;;;19.08;46.20
62617;BME280;62539;51.190;6.808;2023-01-28T08:10:44;102634.38;;;19.10;46.12
62617;BME280;62539;51.190;6.808;2023-01-28T08:13:10;102643.13;;;19.13;46.10
62617;BME280;62539;51.190;6.808;2023-01-28T08:15:37;102648.38;;;19.14;46.13
62617;BME280;62539;51.190;6.808;2023-01-28T08:18:04;102651.00;;;19.16;46.17
62617;BME280;62539;51.190;6.808;2023-01-28T08:20:30;102660.63;;;19.18;46.14
62617;BME280;62539;51.190;6.808;2023-01-28T08:23:15;102657.97;;;19.20;46.19
62617;BME280;62539;51.190;6.808;2023-01-28T08:25:43;102657.09;;;19.21;45.37
62617;BME280;62539;51.190;6.808;2023-01-28T08:28:09;102667.63;;;19.21;45.44
62617;BME280;62539;51.190;6.808;2023-01-28T08:30:36;102678.16;;;19.22;45.62
62617;BME280;62539;51.190;6.808;2023-01-28T08:33:05;102674.63;;;19.23;45.61
62617;BME280;62539;51.190;6.808;2023-01-28T08:35:31;102678.97;;;19.26;45.65
62617;BME280;62539;51.190;6.808;2023-01-28T08:37:59;102676.34;;;19.28;45.78
62617;BME280;62539;51.190;6.808;2023-01-28T08:40:25;102678.97;;;19.31;45.76
62617;BME280;62539;51.190;6.808;2023-01-28T08:42:52;102676.31;;;19.32;45.82
62617;BME280;62539;51.190;6.808;2023-01-28T08:45:20;102685.94;;;19.33;45.71
62617;BME280;62539;51.190;6.808;2023-01-28T08:47:55;102686.84;;;19.34;45.86
62617;BME280;62539;51.190;6.808;2023-01-28T08:50:23;102679.81;;;19.34;45.70
62617;BME280;62539;51.190;6.808;2023-01-28T08:52:58;102682.47;;;19.33;45.81
62617;BME280;62539;51.190;6.808;2023-01-28T08:55:26;102692.97;;;19.31;45.73
62617;BME280;62539;51.190;6.808;2023-01-28T08:57:52;102695.63;;;19.31;45.87
62617;BME280;62539;51.190;6.808;2023-01-28T09:00:18;102702.66;;;19.29;46.00
62617;BME280;62539;51.190;6.808;2023-01-28T09:02:45;102698.28;;;19.25;46.02
62617;BME280;62539;51.190;6.808;2023-01-28T09:05:11;102703.56;;;19.25;46.09
62617;BME280;62539;51.190;6.808;2023-01-28T09:07:37;102713.22;;;19.23;46.11
62617;BME280;62539;51.190;6.808;2023-01-28T09:10:04;102716.72;;;19.22;46.09
62617;BME280;62539;51.190;6.808;2023-01-28T09:12:30;102719.34;;;19.22;46.13
62617;BME280;62539;51.190;6.808;2023-01-28T09:14:57;102722.00;;;19.22;46.27
62617;BME280;62539;51.190;6.808;2023-01-28T09:17:23;102729.00;;;19.24;46.09
62617;BME280;62539;51.190;6.808;2023-01-28T09:19:49;102732.50;;;19.25;46.15
62617;BME280;62539;51.190;6.808;2023-01-28T09:22:15;102740.38;;;19.28;46.14
62617;BME280;62539;51.190;6.808;2023-01-28T09:24:41;102735.09;;;19.31;46.04
62617;BME280;62539;51.190;6.808;2023-01-28T09:27:06;102743.84;;;19.33;46.10
62617;BME280;62539;51.190;6.808;2023-01-28T09:29:35;102749.13;;;19.35;46.06
62617;BME280;62539;51.190;6.808;2023-01-28T09:32:02;102743.81;;;19.36;46.02
62617;BME280;62539;51.190;6.808;2023-01-28T09:34:28;102746.47;;;19.38;46.13
62617;BME280;62539;51.190;6.808;2023-01-28T09:36:53;102737.69;;;19.39;46.08
62617;BME280;62539;51.190;6.808;2023-01-28T09:39:19;102734.16;;;19.40;46.15
62617;BME280;62539;51.190;6.808;2023-01-28T09:42:07;102736.78;;;19.42;46.06
62617;BME280;62539;51.190;6.808;2023-01-28T09:48:07;102752.56;;;19.42;46.08
62617;BME280;62539;51.190;6.808;2023-01-28T09:50:39;102740.28;;;19.42;46.10
62617;BME280;62539;51.190;6.808;2023-01-28T09:55:51;102757.81;;;19.42;46.34
62617;BME280;62539;51.190;6.808;2023-01-28T09:58:20;102754.31;;;19.43;46.37
62617;BME280;62539;51.190;6.808;2023-01-28T10:03:59;102757.78;;;19.48;46.60
62617;BME280;62539;51.190;6.808;2023-01-28T10:06:58;102756.03;;;19.47;46.66
62617;BME280;62539;51.190;6.808;2023-01-28T10:10:11;102754.28;;;19.46;46.68
62617;BME280;62539;51.190;6.808;2023-01-28T10:12:48;102748.16;;;19.44;46.69
62617;BME280;62539;51.190;6.808;2023-01-28T10:18:03;102747.31;;;19.38;46.48
62617;BME280;62539;51.190;6.808;2023-01-28T10:20:42;102735.94;;;19.36;46.77
62617;BME280;62539;51.190;6.808;2023-01-28T10:23:18;102739.44;;;19.37;46.75
62617;BME280;62539;51.190;6.808;2023-01-28T10:25:49;102745.59;;;19.36;47.02
62617;BME280;62539;51.190;6.808;2023-01-28T10:28:20;102747.31;;;19.38;46.85
62617;BME280;62539;51.190;6.808;2023-01-28T10:30:49;102745.56;;;19.41;46.83
62617;BME280;62539;51.190;6.808;2023-01-28T10:33:35;102742.03;;;19.42;46.72
62617;BME280;62539;51.190;6.808;2023-01-28T10:36:02;102742.03;;;19.43;46.81
62617;BME280;62539;51.190;6.808;2023-01-28T10:38:29;102731.50;;;19.45;46.64
62617;BME280;62539;51.190;6.808;2023-01-28T10:41:01;102727.97;;;19.46;46.90
62617;BME280;62539;51.190;6.808;2023-01-28T10:43:32;102734.09;;;19.48;46.75
62617;BME280;62539;51.190;6.808;2023-01-28T10:46:05;102742.00;;;19.48;46.85
62617;BME280;62539;51.190;6.808;2023-01-28T10:48:45;102740.22;;;19.50;46.85
62617;BME280;62539;51.190;6.808;2023-01-28T10:51:29;102739.34;;;19.51;46.83
62617;BME280;62539;51.190;6.808;2023-01-28T10:53:56;102741.09;;;19.52;46.79
62617;BME280;62539;51.190;6.808;2023-01-28T10:56:26;102736.69;;;19.54;46.71
62617;BME280;62539;51.190;6.808;2023-01-28T10:59:03;102741.06;;;19.55;46.63
62617;BME280;62539;51.190;6.808;2023-01-28T11:01:58;102742.81;;;19.56;46.64
62617;BME280;62539;51.190;6.808;2023-01-28T11:04:33;102747.19;;;19.57;46.63
62617;BME280;62539;51.190;6.808;2023-01-28T11:07:05;102743.69;;;19.58;46.79
62617;BME280;62539;51.190;6.808;2023-01-28T11:09:44;102754.19;;;19.61;46.66
62617;BME280;62539;51.190;6.808;2023-01-28T11:12:16;102748.91;;;19.61;46.80
62617;BME280;62539;51.190;6.808;2023-01-28T11:17:34;102749.81;;;19.57;45.34
62617;BME280;62539;51.190;6.808;2023-01-28T11:20:11;102763.00;;;19.54;45.65
62617;BME280;62539;51.190;6.808;2023-01-28T11:22:45;102770.03;;;19.52;46.01
62617;BME280;62539;51.190;6.808;2023-01-28T11:25:26;102758.66;;;19.51;46.33
62617;BME280;62539;51.190;6.808;2023-01-28T11:27:52;102763.00;;;19.54;46.51
62617;BME280;62539;51.190;6.808;2023-01-28T11:30:30;102762.16;;;19.53;46.40
62617;BME280;62539;51.190;6.808;2023-01-28T11:33:20;102759.53;;;19.53;46.96
62617;BME280;62539;51.190;6.808;2023-01-28T11:35:57;102762.13;;;19.55;47.03
62617;BME280;62539;51.190;6.808;2023-01-28T11:38:28;102757.72;;;19.57;47.42
62617;BME280;62539;51.190;6.808;2023-01-28T11:40:56;102755.09;;;19.57;47.56
62617;BME280;62539;51.190;6.808;2023-01-28T11:43:24;102759.44;;;19.61;47.66
62617;BME280;62539;51.190;6.808;2023-01-28T11:46:05;102755.94;;;19.64;47.99
62617;BME280;62539;51.190;6.808;2023-01-28T12:01:24;102739.16;;;19.76;48.85
62617;BME280;62539;51.190;6.808;2023-01-28T12:04:14;102737.41;;;19.76;48.97
62617;BME280;62539;51.190;6.808;2023-01-28T12:06:54;102733.00;;;19.77;49.06
62617;BME280;62539;51.190;6.808;2023-01-28T12:09:34;102733.00;;;19.77;49.10
62617;BME280;62539;51.190;6.808;2023-01-28T12:15:22;102734.78;;;19.76;48.96
62617;BME280;62539;51.190;6.808;2023-01-28T12:21:05;102727.72;;;19.77;49.12
62617;BME280;62539;51.190;6.808;2023-01-28T12:26:19;102733.84;;;19.79;49.12
62617;BME280;62539;51.190;6.808;2023-01-28T12:32:34;102714.53;;;19.80;49.10
62617;BME280;62539;51.190;6.808;2023-01-28T12:38:08;102713.69;;;19.78;49.16
62617;BME280;62539;51.190;6.808;2023-01-28T12:40:49;102707.56;;;19.77;49.29
62617;BME280;62539;51.190;6.808;2023-01-28T12:46:27;102687.38;;;19.75;49.33
62617;BME280;62539;51.190;6.808;2023-01-28T12:49:15;102687.41;;;19.73;49.40
62617;BME280;62539;51.190;6.808;2023-01-28T12:55:19;102674.22;;;19.72;49.54
62617;BME280;62539;51.190;6.808;2023-01-28T12:57:57;102668.97;;;19.72;49.54
62617;BME280;62539;51.190;6.808;2023-01-28T13:00:29;102654.03;;;19.74;49.54
62617;BME280;62539;51.190;6.808;2023-01-28T13:03:25;102654.00;;;19.77;49.58
62617;BME280;62539;51.190;6.808;2023-01-28T13:06:03;102649.59;;;19.79;49.82
62617;BME280;62539;51.190;6.808;2023-01-28T13:08:34;102640.81;;;19.81;49.69
62617;BME280;62539;51.190;6.808;2023-01-28T13:11:01;102613.53;;;19.84;49.53
62617;BME280;62539;51.190;6.808;2023-01-28T13:13:32;102611.75;;;19.91;49.57
62617;BME280;62539;51.190;6.808;2023-01-28T13:16:01;102606.44;;;19.95;49.58
62617;BME280;62539;51.190;6.808;2023-01-28T13:29:31;102645.72;;;20.16;49.42
62617;BME280;62539;51.190;6.808;2023-01-28T13:32:02;102644.81;;;20.18;49.34
62617;BME280;62539;51.190;6.808;2023-01-28T13:34:58;102650.03;;;20.21;49.23
62617;BME280;62539;51.190;6.808;2023-01-28T13:37:35;102650.00;;;20.24;49.40
62617;BME280;62539;51.190;6.808;2023-01-28T13:42:38;102649.09;;;20.29;49.20
62617;BME280;62539;51.190;6.808;2023-01-28T13:47:43;102650.81;;;20.31;49.23
62617;BME280;62539;51.190;6.808;2023-01-28T13:50:17;102649.94;;;20.31;49.41
62617;BME280;62539;51.190;6.808;2023-01-28T13:53:16;102661.41;;;20.28;49.34
62617;BME280;62539;51.190;6.808;2023-01-28T13:55:49;102677.25;;;20.25;49.28
62617;BME280;62539;51.190;6.808;2023-01-28T14:04:12;102674.75;;;20.11;48.63
62617;BME280;62539;51.190;6.808;2023-01-28T14:07:02;102673.03;;;20.07;49.22
62617;BME280;62539;51.190;6.808;2023-01-28T14:16:04;102684.53;;;20.00;49.42
62617;BME280;62539;51.190;6.808;2023-01-28T14:18:41;102682.78;;;19.98;49.92
62617;BME280;62539;51.190;6.808;2023-01-28T14:21:15;102685.41;;;19.98;49.69
62617;BME280;62539;51.190;6.808;2023-01-28T14:23:48;102681.94;;;19.98;49.59
62617;BME280;62539;51.190;6.808;2023-01-28T14:26:45;102691.59;;;19.99;49.61
62617;BME280;62539;51.190;6.808;2023-01-28T14:29:35;102681.91;;;20.00;50.19
62617;BME280;62539;51.190;6.808;2023-01-28T14:32:24;102673.09;;;20.01;50.54
62617;BME280;62539;51.190;6.808;2023-01-28T14:34:54;102671.38;;;20.00;49.32
62617;BME280;62539;51.190;6.808;2023-01-28T14:37:27;102656.44;;;20.00;49.99
62617;BME280;62539;51.190;6.808;2023-01-28T14:40:01;102654.69;;;19.99;50.08